sensor_id;sensor_type;location;lat;lon;timestamp;pressure;altitude;pressure_sealevel;temperature;humidity
7832;BME280;3961;42.058;25.586;2022-07-22T00:00:00;64663.66;;;21.52;98.52
7832;BME280;3961;42.058;25.586;2022-07-22T00:02:25;64677.81;;;21.60;98.40
7832;BME280;3961;42.058;25.586;2022-07-22T00:04:51;64657.22;;;21.46;99.58
7832;BME280;3961;42.058;25.586;2022-07-22T00:07:17;64641.66;;;21.35;99.14
7832;BME280;3961;42.058;25.586;2022-07-22T00:09:42;64650.44;;;21.43;99.81
7832;BME280;3961;42.058;25.586;2022-07-22T00:12:08;64652.75;;;21.45;100.00
7832;BME280;3961;42.058;25.586;2022-07-22T00:14:34;64655.03;;;21.40;100.00
7832;BME280;3961;42.058;25.586;2022-07-22T00:17:00;64645.31;;;21.34;100.00
7832;BME280;3961;42.058;25.586;2022-07-22T00:19:25;64633.63;;;21.24;100.00
7832;BME280;3961;42.058;25.586;2022-07-22T00:21:52;64620.03;;;21.17;100.00
7832;BME280;3961;42.058;25.586;2022-07-22T00:24:18;64616.66;;;21.09;100.00
7832;BME280;3961;42.058;25.586;2022-07-22T00:26:44;64622.34;;;21.19;100.00
7832;BME280;3961;42.058;25.586;2022-07-22T00:29:10;64642.03;;;21.33;100.00
7832;BME280;3961;42.058;25.586;2022-07-22T00:31:35;64636.91;;;21.24;100.00
7832;BME280;3961;42.058;25.586;2022-07-22T00:34:01;64633.84;;;21.26;100.00
7832;BME280;3961;42.058;25.586;2022-07-22T00:36:28;64611.50;;;21.11;100.00
7832;BME280;3961;42.058;25.586;2022-07-22T00:38:54;64607.53;;;21.03;100.00
7832;BME280;3961;42.058;25.586;2022-07-22T00:41:20;64616.09;;;21.08;100.00
7832;BME280;3961;42.058;25.586;2022-07-22T00:43:59;64608.72;;;21.04;100.00
7832;BME280;3961;42.058;25.586;2022-07-22T00:46:26;64625.41;;;21.17;100.00
7832;BME280;3961;42.058;25.586;2022-07-22T00:48:53;64620.38;;;21.14;100.00
7832;BME280;3961;42.058;25.586;2022-07-22T00:51:19;64608.13;;;21.04;100.00
7832;BME280;3961;42.058;25.586;2022-07-22T00:53:46;64622.50;;;21.14;100.00
7832;BME280;3961;42.058;25.586;2022-07-22T00:56:12;64611.06;;;21.06;100.00
7832;BME280;3961;42.058;25.586;2022-07-22T00:58:37;64614.34;;;21.07;100.00
7832;BME280;3961;42.058;25.586;2022-07-22T01:01:03;64632.69;;;21.25;100.00
7832;BME280;3961;42.058;25.586;2022-07-22T01:03:29;64612.34;;;21.03;100.00
7832;BME280;3961;42.058;25.586;2022-07-22T01:05:55;64593.75;;;20.94;100.00
7832;BME280;3961;42.058;25.586;2022-07-22T01:08:21;64603.44;;;21.00;100.00
7832;BME280;3961;42.058;25.586;2022-07-22T01:10:47;64619.44;;;21.16;100.00
7832;BME280;3961;42.058;25.586;2022-07-22T01:13:13;64597.59;;;20.95;100.00
7832;BME280;3961;42.058;25.586;2022-07-22T01:15:38;64589.06;;;20.90;100.00
7832;BME280;3961;42.058;25.586;2022-07-22T01:18:04;64596.66;;;20.96;100.00
7832;BME280;3961;42.058;25.586;2022-07-22T01:20:30;64593.28;;;20.89;100.00
7832;BME280;3961;42.058;25.586;2022-07-22T01:22:57;64583.16;;;20.77;100.00
7832;BME280;3961;42.058;25.586;2022-07-22T01:25:22;64607.31;;;21.01;100.00
7832;BME280;3961;42.058;25.586;2022-07-22T01:27:48;64602.72;;;21.04;100.00
7832;BME280;3961;42.058;25.586;2022-07-22T01:30:14;64621.31;;;21.13;100.00
7832;BME280;3961;42.058;25.586;2022-07-22T01:32:39;64612.00;;;21.05;100.00
7832;BME280;3961;42.058;25.586;2022-07-22T01:35:05;64621.91;;;21.13;100.00
7832;BME280;3961;42.058;25.586;2022-07-22T01:37:34;64640.63;;;21.30;100.00
7832;BME280;3961;42.058;25.586;2022-07-22T01:39:59;64643.19;;;21.34;100.00
7832;BME280;3961;42.058;25.586;2022-07-22T01:42:25;64623.31;;;21.17;100.00
7832;BME280;3961;42.058;25.586;2022-07-22T01:44:51;64659.91;;;21.46;100.00
7832;BME280;3961;42.058;25.586;2022-07-22T01:47:17;64660.50;;;21.47;100.00
7832;BME280;3961;42.058;25.586;2022-07-22T01:49:43;64669.13;;;21.59;100.00
7832;BME280;3961;42.058;25.586;2022-07-22T01:52:08;64659.31;;;21.46;100.00
7832;BME280;3961;42.058;25.586;2022-07-22T01:54:34;64670.06;;;21.58;100.00
7832;BME280;3961;42.058;25.586;2022-07-22T01:57:01;64690.91;;;21.73;100.00
7832;BME280;3961;42.058;25.586;2022-07-22T01:59:26;64675.94;;;21.63;100.00
7832;BME280;3961;42.058;25.586;2022-07-22T02:01:52;64695.56;;;21.77;100.00
7832;BME280;3961;42.058;25.586;2022-07-22T02:04:18;64716.63;;;21.96;100.00
7832;BME280;3961;42.058;25.586;2022-07-22T02:06:44;64702.81;;;21.86;100.00
7832;BME280;3961;42.058;25.586;2022-07-22T02:09:09;64717.78;;;21.97;100.00
7832;BME280;3961;42.058;25.586;2022-07-22T02:11:35;64723.66;;;22.02;100.00
7832;BME280;3961;42.058;25.586;2022-07-22T02:14:01;64697.75;;;21.84;100.00
7832;BME280;3961;42.058;25.586;2022-07-22T02:16:27;64721.31;;;22.00;100.00
7832;BME280;3961;42.058;25.586;2022-07-22T02:18:53;64710.78;;;21.91;100.00
7832;BME280;3961;42.058;25.586;2022-07-22T02:21:19;64712.16;;;21.94;100.00
7832;BME280;3961;42.058;25.586;2022-07-22T02:23:45;64725.66;;;22.06;98.11
7832;BME280;3961;42.058;25.586;2022-07-22T02:26:10;64723.53;;;22.06;96.73
7832;BME280;3961;42.058;25.586;2022-07-22T02:28:36;64725.19;;;22.01;96.73
7832;BME280;3961;42.058;25.586;2022-07-22T02:31:02;64720.97;;;22.02;96.85
7832;BME280;3961;42.058;25.586;2022-07-22T02:33:27;64719.19;;;22.00;95.98
7832;BME280;3961;42.058;25.586;2022-07-22T02:35:55;64715.47;;;21.95;96.53
7832;BME280;3961;42.058;25.586;2022-07-22T02:38:21;64715.09;;;21.97;96.41
7832;BME280;3961;42.058;25.586;2022-07-22T02:40:46;64720.00;;;22.03;95.71
7832;BME280;3961;42.058;25.586;2022-07-22T02:43:12;64718.38;;;21.97;94.13
7832;BME280;3961;42.058;25.586;2022-07-22T02:45:38;64707.13;;;21.92;93.77
7832;BME280;3961;42.058;25.586;2022-07-22T02:48:04;64691.72;;;21.76;94.41
7832;BME280;3961;42.058;25.586;2022-07-22T02:50:29;64682.94;;;21.69;94.55
7832;BME280;3961;42.058;25.586;2022-07-22T02:52:55;64678.41;;;21.60;94.29
7832;BME280;3961;42.058;25.586;2022-07-22T02:55:21;64649.63;;;21.40;95.74
7832;BME280;3961;42.058;25.586;2022-07-22T02:57:46;64626.59;;;21.18;96.61
7832;BME280;3961;42.058;25.586;2022-07-22T03:00:12;64650.34;;;21.36;95.77
7832;BME280;3961;42.058;25.586;2022-07-22T03:02:38;64637.34;;;21.29;95.13
7832;BME280;3961;42.058;25.586;2022-07-22T03:05:05;64638.53;;;21.30;94.87
7832;BME280;3961;42.058;25.586;2022-07-22T03:07:31;64634.44;;;21.27;95.32
7832;BME280;3961;42.058;25.586;2022-07-22T03:09:57;64593.75;;;20.94;96.82
7832;BME280;3961;42.058;25.586;2022-07-22T03:12:22;64596.44;;;20.94;98.55
7832;BME280;3961;42.058;25.586;2022-07-22T03:14:48;64619.59;;;21.11;98.06
7832;BME280;3961;42.058;25.586;2022-07-22T03:17:14;64608.50;;;21.02;97.49
7832;BME280;3961;42.058;25.586;2022-07-22T03:19:40;64622.13;;;21.16;97.26
7832;BME280;3961;42.058;25.586;2022-07-22T03:22:05;64606.97;;;21.03;98.41
7832;BME280;3961;42.058;25.586;2022-07-22T03:24:30;64629.16;;;21.22;97.46
7832;BME280;3961;42.058;25.586;2022-07-22T03:26:56;64618.84;;;21.16;97.21
7832;BME280;3961;42.058;25.586;2022-07-22T03:29:22;64629.50;;;21.20;96.55
7832;BME280;3961;42.058;25.586;2022-07-22T03:31:47;64655.03;;;21.40;95.35
7832;BME280;3961;42.058;25.586;2022-07-22T03:34:13;64636.78;;;21.29;95.10
7832;BME280;3961;42.058;25.586;2022-07-22T03:36:39;64638.53;;;21.30;94.15
7832;BME280;3961;42.058;25.586;2022-07-22T03:39:05;64690.31;;;21.73;92.66
7832;BME280;3961;42.058;25.586;2022-07-22T03:41:30;64706.31;;;21.89;91.20
7832;BME280;3961;42.058;25.586;2022-07-22T03:43:56;64718.00;;;21.99;90.63
7832;BME280;3961;42.058;25.586;2022-07-22T03:46:22;64723.88;;;22.04;90.27
7832;BME280;3961;42.058;25.586;2022-07-22T03:48:47;64728.94;;;22.06;89.35
7832;BME280;3961;42.058;25.586;2022-07-22T03:51:13;64734.41;;;22.13;89.35
7832;BME280;3961;42.058;25.586;2022-07-22T03:53:38;64754.88;;;22.31;88.82
7832;BME280;3961;42.058;25.586;2022-07-22T03:56:04;64822.53;;;22.88;86.76
7832;BME280;3961;42.058;25.586;2022-07-22T03:58:30;65003.44;;;24.49;78.10
7832;BME280;3961;42.058;25.586;2022-07-22T04:00:55;65213.81;;;26.22;69.92
7832;BME280;3961;42.058;25.586;2022-07-22T04:03:21;65394.38;;;27.85;63.11
7832;BME280;3961;42.058;25.586;2022-07-22T04:05:46;65512.84;;;28.82;57.53
7832;BME280;3961;42.058;25.586;2022-07-22T04:08:12;65570.34;;;29.29;55.19
7832;BME280;3961;42.058;25.586;2022-07-22T04:10:38;65463.22;;;28.44;57.70
7832;BME280;3961;42.058;25.586;2022-07-22T04:13:04;65461.22;;;28.40;59.04
7832;BME280;3961;42.058;25.586;2022-07-22T04:15:30;65564.88;;;29.29;55.66
7832;BME280;3961;42.058;25.586;2022-07-22T04:17:55;65647.75;;;29.98;52.82
7832;BME280;3961;42.058;25.586;2022-07-22T04:20:21;65642.44;;;29.94;53.51
7832;BME280;3961;42.058;25.586;2022-07-22T04:22:47;65740.00;;;30.80;51.47
7832;BME280;3961;42.058;25.586;2022-07-22T04:25:12;65687.28;;;30.32;51.26
7832;BME280;3961;42.058;25.586;2022-07-22T04:27:38;65810.22;;;31.40;49.05
7832;BME280;3961;42.058;25.586;2022-07-22T04:30:04;65885.59;;;32.03;45.31
7832;BME280;3961;42.058;25.586;2022-07-22T04:32:30;65766.91;;;31.01;48.14
7832;BME280;3961;42.058;25.586;2022-07-22T04:34:55;65958.47;;;32.68;44.57
7832;BME280;3961;42.058;25.586;2022-07-22T04:37:21;66208.56;;;34.80;39.72
7832;BME280;3961;42.058;25.586;2022-07-22T04:39:46;66290.31;;;35.50;37.96
7832;BME280;3961;42.058;25.586;2022-07-22T04:42:12;66289.13;;;35.49;37.94
7832;BME280;3961;42.058;25.586;2022-07-22T04:44:38;66073.59;;;33.64;40.89
7832;BME280;3961;42.058;25.586;2022-07-22T04:47:03;66170.06;;;34.47;39.69
7832;BME280;3961;42.058;25.586;2022-07-22T04:49:29;66205.56;;;34.78;38.64
7832;BME280;3961;42.058;25.586;2022-07-22T04:51:55;66264.84;;;35.28;38.16
7832;BME280;3961;42.058;25.586;2022-07-22T04:54:20;66360.06;;;36.08;36.95
7832;BME280;3961;42.058;25.586;2022-07-22T04:56:46;66204.41;;;34.77;38.92
7832;BME280;3961;42.058;25.586;2022-07-22T04:59:12;66167.69;;;34.45;39.56
7832;BME280;3961;42.058;25.586;2022-07-22T05:01:37;66309.50;;;35.69;37.16
7832;BME280;3961;42.058;25.586;2022-07-22T05:04:03;66091.56;;;33.82;40.99
7832;BME280;3961;42.058;25.586;2022-07-22T05:06:29;66036.34;;;33.32;42.11
7832;BME280;3961;42.058;25.586;2022-07-22T05:08:55;65992.56;;;32.95;43.48
7832;BME280;3961;42.058;25.586;2022-07-22T05:11:20;65936.22;;;32.51;44.39
7832;BME280;3961;42.058;25.586;2022-07-22T05:13:46;66014.06;;;33.16;43.07
7832;BME280;3961;42.058;25.586;2022-07-22T05:16:11;66139.88;;;34.21;40.52
7832;BME280;3961;42.058;25.586;2022-07-22T05:18:37;66055.63;;;33.47;42.56
7832;BME280;3961;42.058;25.586;2022-07-22T05:21:03;65875.78;;;31.97;45.95
7832;BME280;3961;42.058;25.586;2022-07-22T05:23:29;65916.16;;;32.34;45.66
7832;BME280;3961;42.058;25.586;2022-07-22T05:25:55;65804.91;;;31.36;47.59
7832;BME280;3961;42.058;25.586;2022-07-22T05:28:20;65909.25;;;32.23;45.84
7832;BME280;3961;42.058;25.586;2022-07-22T05:30:46;65879.31;;;32.00;46.94
7832;BME280;3961;42.058;25.586;2022-07-22T05:33:12;65897.03;;;32.15;46.79
7832;BME280;3961;42.058;25.586;2022-07-22T05:35:38;65907.09;;;32.24;46.97
7832;BME280;3961;42.058;25.586;2022-07-22T05:38:03;65818.88;;;31.46;48.68
7832;BME280;3961;42.058;25.586;2022-07-22T05:40:31;65835.97;;;31.60;48.57
7832;BME280;3961;42.058;25.586;2022-07-22T05:42:57;65756.28;;;30.92;50.36
7832;BME280;3961;42.058;25.586;2022-07-22T05:45:23;65759.84;;;30.95;50.98
7832;BME280;3961;42.058;25.586;2022-07-22T05:47:48;65779.75;;;31.17;51.28
7832;BME280;3961;42.058;25.586;2022-07-22T05:50:14;65768.91;;;31.05;50.70
7832;BME280;3961;42.058;25.586;2022-07-22T05:52:39;65686.91;;;30.34;52.51
7832;BME280;3961;42.058;25.586;2022-07-22T05:55:06;65665.31;;;30.18;53.16
7832;BME280;3961;42.058;25.586;2022-07-22T05:57:32;65627.72;;;29.81;55.52
7832;BME280;3961;42.058;25.586;2022-07-22T05:59:57;65558.97;;;29.24;57.21
7832;BME280;3961;42.058;25.586;2022-07-22T06:02:23;65572.31;;;29.33;58.85
7832;BME280;3961;42.058;25.586;2022-07-22T06:04:49;65559.78;;;29.27;58.69
7832;BME280;3961;42.058;25.586;2022-07-22T06:07:14;65461.63;;;28.38;62.04
7832;BME280;3961;42.058;25.586;2022-07-22T06:09:41;65437.09;;;28.19;63.99
7832;BME280;3961;42.058;25.586;2022-07-22T06:12:07;65476.53;;;28.53;63.26
7832;BME280;3961;42.058;25.586;2022-07-22T06:14:34;65447.91;;;28.31;65.02
7832;BME280;3961;42.058;25.586;2022-07-22T06:17:01;65488.91;;;28.64;63.67
7832;BME280;3961;42.058;25.586;2022-07-22T06:19:27;65436.50;;;28.19;64.98
7832;BME280;3961;42.058;25.586;2022-07-22T06:21:55;65474.19;;;28.51;63.72
7832;BME280;3961;42.058;25.586;2022-07-22T06:24:21;65475.97;;;28.53;64.73
7832;BME280;3961;42.058;25.586;2022-07-22T06:26:46;65469.47;;;28.47;64.74
7832;BME280;3961;42.058;25.586;2022-07-22T06:29:12;65461.63;;;28.38;64.02
7832;BME280;3961;42.058;25.586;2022-07-22T06:31:38;65390.63;;;27.79;64.79
7832;BME280;3961;42.058;25.586;2022-07-22T06:34:03;65442.81;;;28.29;64.61
7832;BME280;3961;42.058;25.586;2022-07-22T06:36:33;65442.41;;;28.24;64.47
7832;BME280;3961;42.058;25.586;2022-07-22T06:38:59;65430.63;;;28.14;64.81
7832;BME280;3961;42.058;25.586;2022-07-22T06:41:25;65423.94;;;28.05;65.79
7832;BME280;3961;42.058;25.586;2022-07-22T06:43:50;65407.09;;;27.93;66.26
7832;BME280;3961;42.058;25.586;2022-07-22T06:46:16;65418.63;;;28.01;66.09
7832;BME280;3961;42.058;25.586;2022-07-22T06:48:42;65445.94;;;28.27;64.43
7832;BME280;3961;42.058;25.586;2022-07-22T06:51:07;65460.66;;;28.39;64.09
7832;BME280;3961;42.058;25.586;2022-07-22T06:53:33;65466.31;;;28.42;63.66
7832;BME280;3961;42.058;25.586;2022-07-22T06:55:59;65510.72;;;28.83;62.87
7832;BME280;3961;42.058;25.586;2022-07-22T06:58:25;65543.69;;;29.11;61.11
7832;BME280;3961;42.058;25.586;2022-07-22T07:00:50;65600.81;;;29.60;59.47
7832;BME280;3961;42.058;25.586;2022-07-22T07:03:16;65653.31;;;30.05;58.46
7832;BME280;3961;42.058;25.586;2022-07-22T07:05:42;65579.97;;;29.40;59.87
7832;BME280;3961;42.058;25.586;2022-07-22T07:08:07;65671.97;;;30.19;58.10
7832;BME280;3961;42.058;25.586;2022-07-22T07:10:33;65729.38;;;30.71;56.43
7832;BME280;3961;42.058;25.586;2022-07-22T07:12:59;65766.91;;;31.01;55.16
7832;BME280;3961;42.058;25.586;2022-07-22T07:15:26;65745.09;;;30.82;55.22
7832;BME280;3961;42.058;25.586;2022-07-22T07:17:53;65740.97;;;30.79;54.63
7832;BME280;3961;42.058;25.586;2022-07-22T07:20:19;65739.78;;;30.78;55.21
7832;BME280;3961;42.058;25.586;2022-07-22T07:22:45;65721.72;;;30.64;55.38
7832;BME280;3961;42.058;25.586;2022-07-22T07:25:11;65741.38;;;30.84;54.86
7832;BME280;3961;42.058;25.586;2022-07-22T07:27:36;65758.06;;;30.93;53.91
7832;BME280;3961;42.058;25.586;2022-07-22T07:30:05;65737.81;;;30.73;54.00
7832;BME280;3961;42.058;25.586;2022-07-22T07:32:31;65746.69;;;30.88;54.41
7832;BME280;3961;42.058;25.586;2022-07-22T07:34:57;65807.28;;;31.38;52.83
7832;BME280;3961;42.058;25.586;2022-07-22T07:37:23;65847.81;;;31.70;51.63
7832;BME280;3961;42.058;25.586;2022-07-22T07:39:48;65876.94;;;31.98;50.00
7832;BME280;3961;42.058;25.586;2022-07-22T07:42:14;65848.22;;;31.76;50.52
7832;BME280;3961;42.058;25.586;2022-07-22T07:44:40;65853.94;;;31.78;50.27
7832;BME280;3961;42.058;25.586;2022-07-22T07:47:05;65823.00;;;31.49;50.97
7832;BME280;3961;42.058;25.586;2022-07-22T07:49:31;65836.41;;;31.65;49.97
7832;BME280;3961;42.058;25.586;2022-07-22T07:51:56;65812.97;;;31.40;51.55
7832;BME280;3961;42.058;25.586;2022-07-22T07:54:22;65784.28;;;31.25;51.93
7832;BME280;3961;42.058;25.586;2022-07-22T07:56:48;65793.69;;;31.26;52.36
7832;BME280;3961;42.058;25.586;2022-07-22T07:59:13;65849.41;;;31.77;51.19
7832;BME280;3961;42.058;25.586;2022-07-22T08:01:39;65871.44;;;31.91;50.81
7832;BME280;3961;42.058;25.586;2022-07-22T08:04:05;65840.94;;;31.67;50.35
7832;BME280;3961;42.058;25.586;2022-07-22T08:06:31;65831.84;;;31.57;51.18
7832;BME280;3961;42.058;25.586;2022-07-22T08:08:57;65855.13;;;31.79;50.26
7832;BME280;3961;42.058;25.586;2022-07-22T08:11:22;65844.09;;;31.72;49.94
7832;BME280;3961;42.058;25.586;2022-07-22T08:13:48;65812.22;;;31.45;50.51
7832;BME280;3961;42.058;25.586;2022-07-22T08:16:14;65784.47;;;31.21;49.74
7832;BME280;3961;42.058;25.586;2022-07-22T08:18:39;65735.50;;;30.79;50.44
7832;BME280;3961;42.058;25.586;2022-07-22T08:21:05;65810.41;;;31.36;50.06
7832;BME280;3961;42.058;25.586;2022-07-22T08:23:32;65823.00;;;31.49;48.80
7832;BME280;3961;42.058;25.586;2022-07-22T08:25:58;65892.09;;;32.09;46.65
7832;BME280;3961;42.058;25.586;2022-07-22T08:28:24;65892.31;;;32.11;46.47
7832;BME280;3961;42.058;25.586;2022-07-22T08:30:51;65829.09;;;31.57;48.06
7832;BME280;3961;42.058;25.586;2022-07-22T08:33:16;65926.38;;;32.38;47.47
7832;BME280;3961;42.058;25.586;2022-07-22T08:35:42;65987.84;;;32.91;46.39
7832;BME280;3961;42.058;25.586;2022-07-22T08:38:08;66008.16;;;33.11;45.23
7832;BME280;3961;42.058;25.586;2022-07-22T08:40:34;66042.66;;;33.43;44.08
7832;BME280;3961;42.058;25.586;2022-07-22T08:43:00;66068.28;;;33.60;44.60
7832;BME280;3961;42.058;25.586;2022-07-22T08:45:29;66083.28;;;33.75;43.07
7832;BME280;3961;42.058;25.586;2022-07-22T08:47:55;66141.25;;;34.25;42.69
7832;BME280;3961;42.058;25.586;2022-07-22T08:50:21;66175.78;;;34.50;41.05
7832;BME280;3961;42.058;25.586;2022-07-22T08:52:47;66193.97;;;34.70;41.27
7832;BME280;3961;42.058;25.586;2022-07-22T08:55:13;66158.25;;;34.37;41.07
7832;BME280;3961;42.058;25.586;2022-07-22T08:57:45;66196.91;;;34.73;41.80
7832;BME280;3961;42.058;25.586;2022-07-22T09:00:14;66217.44;;;34.88;40.53
7832;BME280;3961;42.058;25.586;2022-07-22T09:02:41;66170.44;;;34.45;40.91
7832;BME280;3961;42.058;25.586;2022-07-22T09:05:10;66038.53;;;33.39;42.29
7832;BME280;3961;42.058;25.586;2022-07-22T09:07:37;65994.72;;;32.94;43.00
7832;BME280;3961;42.058;25.586;2022-07-22T09:10:07;65984.50;;;32.90;42.63
7832;BME280;3961;42.058;25.586;2022-07-22T09:12:34;65984.28;;;32.88;42.84
7832;BME280;3961;42.058;25.586;2022-07-22T09:15:02;65975.44;;;32.80;42.98
7832;BME280;3961;42.058;25.586;2022-07-22T09:17:32;65983.72;;;32.87;42.20
7832;BME280;3961;42.058;25.586;2022-07-22T09:20:02;65984.28;;;32.88;41.93
7832;BME280;3961;42.058;25.586;2022-07-22T09:22:44;66072.41;;;33.63;40.83
7832;BME280;3961;42.058;25.586;2022-07-22T09:25:30;66128.22;;;34.14;39.89
7832;BME280;3961;42.058;25.586;2022-07-22T09:28:10;66161.81;;;34.40;38.89
7832;BME280;3961;42.058;25.586;2022-07-22T09:33:10;66086.03;;;33.75;39.07
7832;BME280;3961;42.058;25.586;2022-07-22T09:35:37;66153.50;;;34.33;39.06
7832;BME280;3961;42.058;25.586;2022-07-22T09:38:04;66165.34;;;34.43;39.60
7832;BME280;3961;42.058;25.586;2022-07-22T09:40:36;66206.16;;;34.78;37.98
7832;BME280;3961;42.058;25.586;2022-07-22T09:43:07;66178.94;;;34.55;38.54
7832;BME280;3961;42.058;25.586;2022-07-22T09:48:11;66294.28;;;35.58;36.99
7832;BME280;3961;42.058;25.586;2022-07-22T09:50:36;66312.44;;;35.72;37.09
7832;BME280;3961;42.058;25.586;2022-07-22T09:53:02;66280.44;;;35.44;37.06
7832;BME280;3961;42.058;25.586;2022-07-22T09:55:29;66297.63;;;35.59;36.17
7832;BME280;3961;42.058;25.586;2022-07-22T09:57:56;66256.13;;;35.23;36.43
7832;BME280;3961;42.058;25.586;2022-07-22T10:00:25;66248.84;;;35.15;36.55
7832;BME280;3961;42.058;25.586;2022-07-22T10:02:54;66257.13;;;35.22;37.38
7832;BME280;3961;42.058;25.586;2022-07-22T10:05:25;66306.72;;;35.62;36.50
7832;BME280;3961;42.058;25.586;2022-07-22T10:07:52;66362.03;;;36.12;36.42
7832;BME280;3961;42.058;25.586;2022-07-22T10:10:23;66384.19;;;36.33;35.09
7832;BME280;3961;42.058;25.586;2022-07-22T10:12:51;66393.28;;;36.36;34.61
7832;BME280;3961;42.058;25.586;2022-07-22T10:15:17;66401.78;;;36.46;34.70
7832;BME280;3961;42.058;25.586;2022-07-22T10:17:46;66411.88;;;36.54;34.47
7832;BME280;3961;42.058;25.586;2022-07-22T10:20:28;66424.72;;;36.63;34.10
7832;BME280;3961;42.058;25.586;2022-07-22T10:23:01;66363.22;;;36.13;35.23
7832;BME280;3961;42.058;25.586;2022-07-22T10:25:30;66238.19;;;35.06;36.36
7832;BME280;3961;42.058;25.586;2022-07-22T10:28:04;66217.84;;;34.86;36.44
7832;BME280;3961;42.058;25.586;2022-07-22T10:30:36;66215.09;;;34.86;36.50
7832;BME280;3961;42.058;25.586;2022-07-22T10:33:18;66182.69;;;34.53;37.12
7832;BME280;3961;42.058;25.586;2022-07-22T10:36:00;66157.06;;;34.36;38.14
7832;BME280;3961;42.058;25.586;2022-07-22T10:38:27;66163.38;;;34.39;37.32
7832;BME280;3961;42.058;25.586;2022-07-22T10:43:28;66218.03;;;34.88;35.60
7832;BME280;3961;42.058;25.586;2022-07-22T10:46:01;66266.63;;;35.30;35.32
7832;BME280;3961;42.058;25.586;2022-07-22T10:54:04;66231.88;;;35.02;36.01
7832;BME280;3961;42.058;25.586;2022-07-22T10:56:31;66299.41;;;35.60;34.07
7832;BME280;3961;42.058;25.586;2022-07-22T10:59:08;66339.13;;;35.94;34.40
7832;BME280;3961;42.058;25.586;2022-07-22T11:01:36;66366.38;;;36.18;33.28
7832;BME280;3961;42.058;25.586;2022-07-22T11:04:20;66386.38;;;36.32;33.31
7832;BME280;3961;42.058;25.586;2022-07-22T11:06:49;66423.53;;;36.62;33.98
7832;BME280;3961;42.058;25.586;2022-07-22T11:09:16;66465.28;;;37.00;32.99
7832;BME280;3961;42.058;25.586;2022-07-22T11:11:53;66492.56;;;37.23;31.74
7832;BME280;3961;42.058;25.586;2022-07-22T11:14:33;66423.53;;;36.62;31.70
7832;BME280;3961;42.058;25.586;2022-07-22T11:17:07;66412.66;;;36.57;30.75
7832;BME280;3961;42.058;25.586;2022-07-22T11:19:34;66349.00;;;36.00;31.10
7832;BME280;3961;42.058;25.586;2022-07-22T11:22:08;66319.75;;;35.73;32.28
7832;BME280;3961;42.058;25.586;2022-07-22T11:24:35;66317.59;;;35.74;32.25
7832;BME280;3961;42.058;25.586;2022-07-22T11:27:02;66326.88;;;35.79;32.23
7832;BME280;3961;42.058;25.586;2022-07-22T11:29:37;66374.88;;;36.20;32.16
7832;BME280;3961;42.058;25.586;2022-07-22T11:32:10;66328.84;;;35.83;31.97
7832;BME280;3961;42.058;25.586;2022-07-22T11:34:37;66338.94;;;35.92;31.67
7832;BME280;3961;42.058;25.586;2022-07-22T11:37:03;66333.78;;;35.90;31.73
7832;BME280;3961;42.058;25.586;2022-07-22T11:39:29;66241.16;;;35.08;32.91
7832;BME280;3961;42.058;25.586;2022-07-22T11:41:57;66282.03;;;35.43;32.62
7832;BME280;3961;42.058;25.586;2022-07-22T11:44:27;66258.91;;;35.23;32.97
7832;BME280;3961;42.058;25.586;2022-07-22T11:46:53;66327.84;;;35.78;33.11
7832;BME280;3961;42.058;25.586;2022-07-22T11:49:25;66369.16;;;36.18;32.22
7832;BME280;3961;42.058;25.586;2022-07-22T11:51:51;66358.09;;;36.11;31.77
7832;BME280;3961;42.058;25.586;2022-07-22T11:54:17;66323.28;;;35.76;31.90
7832;BME280;3961;42.058;25.586;2022-07-22T11:56:43;66295.06;;;35.54;32.27
7832;BME280;3961;42.058;25.586;2022-07-22T11:59:12;66353.56;;;36.02;31.88
7832;BME280;3961;42.058;25.586;2022-07-22T12:01:38;66285.38;;;35.44;32.09
7832;BME280;3961;42.058;25.586;2022-07-22T12:04:06;66263.44;;;35.25;33.18
7832;BME280;3961;42.058;25.586;2022-07-22T12:06:34;66280.25;;;35.42;32.46
7832;BME280;3961;42.058;25.586;2022-07-22T12:11:28;66310.88;;;35.65;32.44
7832;BME280;3961;42.058;25.586;2022-07-22T12:13:55;66324.91;;;35.82;31.96
7832;BME280;3961;42.058;25.586;2022-07-22T12:16:29;66288.34;;;35.46;32.37
7832;BME280;3961;42.058;25.586;2022-07-22T12:19:00;66332.59;;;35.89;31.83
7832;BME280;3961;42.058;25.586;2022-07-22T12:21:35;66371.91;;;36.18;31.50
7832;BME280;3961;42.058;25.586;2022-07-22T12:24:05;66346.63;;;35.98;31.29
7832;BME280;3961;42.058;25.586;2022-07-22T12:26:45;66379.84;;;36.27;31.61
7832;BME280;3961;42.058;25.586;2022-07-22T12:31:49;66417.59;;;36.57;30.79
7832;BME280;3961;42.058;25.586;2022-07-22T12:34:16;66434.41;;;36.74;30.32
7832;BME280;3961;42.058;25.586;2022-07-22T12:36:46;66392.09;;;36.35;30.98
7832;BME280;3961;42.058;25.586;2022-07-22T12:39:17;66395.47;;;36.36;31.08
7832;BME280;3961;42.058;25.586;2022-07-22T12:41:53;66441.13;;;36.82;30.83
7832;BME280;3961;42.058;25.586;2022-07-22T12:44:22;66484.84;;;37.17;30.49
7832;BME280;3961;42.058;25.586;2022-07-22T12:46:52;66486.03;;;37.18;30.13
7832;BME280;3961;42.058;25.586;2022-07-22T12:49:19;66486.63;;;37.18;30.11
7832;BME280;3961;42.058;25.586;2022-07-22T12:52:09;66424.72;;;36.63;30.33
7832;BME280;3961;42.058;25.586;2022-07-22T12:54:36;66403.94;;;36.45;31.00
7832;BME280;3961;42.058;25.586;2022-07-22T12:57:03;66405.13;;;36.46;31.26
7832;BME280;3961;42.058;25.586;2022-07-22T12:59:29;66437.78;;;36.74;30.17
7832;BME280;3961;42.058;25.586;2022-07-22T13:01:55;66455.97;;;36.94;31.34
7832;BME280;3961;42.058;25.586;2022-07-22T13:04:21;66482.47;;;37.15;29.14
7832;BME280;3961;42.058;25.586;2022-07-22T13:06:47;66515.31;;;37.45;29.28
7832;BME280;3961;42.058;25.586;2022-07-22T13:09:12;66541.03;;;37.62;29.29
7832;BME280;3961;42.058;25.586;2022-07-22T13:11:38;66577.47;;;37.96;28.43
7832;BME280;3961;42.058;25.586;2022-07-22T13:14:12;66585.00;;;38.00;27.71
7832;BME280;3961;42.058;25.586;2022-07-22T13:16:38;66595.06;;;38.09;27.91
7832;BME280;3961;42.058;25.586;2022-07-22T13:19:04;66595.06;;;38.09;27.55
7832;BME280;3961;42.058;25.586;2022-07-22T13:21:30;66604.59;;;38.17;27.64
7832;BME280;3961;42.058;25.586;2022-07-22T13:23:55;66583.22;;;37.98;28.04
7832;BME280;3961;42.058;25.586;2022-07-22T13:26:21;66592.69;;;38.07;27.54